createdAt,value
2017-02-06T00:00:04.398Z,0
2017-02-06T00:01:15.805Z,0
2017-02-06T00:02:27.210Z,0
2017-02-06T00:03:38.652Z,0
2017-02-06T00:04:50.058Z,0
2017-02-06T00:06:01.454Z,0
2017-02-06T00:07:12.860Z,0
2017-02-06T00:08:24.263Z,0
2017-02-06T00:09:35.919Z,0
2017-02-06T00:10:47.318Z,0
2017-02-06T00:11:58.728Z,0
2017-02-06T00:13:10.130Z,0
2017-02-06T00:14:21.539Z,0
2017-02-06T00:15:32.996Z,0
2017-02-06T00:16:44.603Z,0
2017-02-06T00:17:56.007Z,0
2017-02-06T00:19:07.412Z,0
2017-02-06T00:20:19.013Z,0
2017-02-06T00:21:30.865Z,0
2017-02-06T00:22:42.269Z,0
2017-02-06T00:23:53.675Z,0
2017-02-06T00:25:05.074Z,0
2017-02-06T00:26:16.679Z,0
2017-02-06T00:27:28.133Z,0
2017-02-06T00:28:39.533Z,0
2017-02-06T00:29:50.943Z,0
2017-02-06T00:31:02.545Z,0
2017-02-06T00:32:13.954Z,0
2017-02-06T00:33:25.810Z,0
2017-02-06T00:34:37.211Z,0
2017-02-06T00:35:48.625Z,0
2017-02-06T00:37:00.028Z,0
2017-02-06T00:38:11.441Z,0
2017-02-06T00:39:22.898Z,0
2017-02-06T00:40:34.307Z,0
2017-02-06T00:41:45.707Z,0
2017-02-06T00:42:57.099Z,0
2017-02-06T00:44:08.498Z,0
2017-02-06T00:45:19.951Z,0
2017-02-06T00:46:31.755Z,0
2017-02-06T00:47:43.354Z,0
2017-02-06T00:48:54.755Z,0
2017-02-06T00:50:06.159Z,0
2017-02-06T00:51:17.606Z,0
2017-02-06T00:52:29.003Z,0
2017-02-06T00:53:40.600Z,0
2017-02-06T00:54:52.001Z,0
2017-02-06T00:56:03.401Z,0
2017-02-06T00:57:14.850Z,0
2017-02-06T00:58:26.252Z,0
2017-02-06T00:59:37.651Z,0
2017-02-06T01:00:49.048Z,0
2017-02-06T01:02:00.451Z,0
2017-02-06T01:03:11.908Z,0
2017-02-06T01:04:23.310Z,0
2017-02-06T01:05:34.711Z,0
2017-02-06T01:06:46.111Z,0
2017-02-06T01:07:57.512Z,0
2017-02-06T01:09:08.961Z,0
2017-02-06T01:10:20.365Z,0
2017-02-06T01:11:31.765Z,0
2017-02-06T01:12:43.166Z,0
2017-02-06T01:13:54.769Z,0
2017-02-06T01:15:06.218Z,0
2017-02-06T01:16:17.819Z,0
2017-02-06T01:17:29.217Z,0
2017-02-06T01:18:40.607Z,0
2017-02-06T01:19:52.011Z,0
2017-02-06T01:21:03.466Z,0
2017-02-06T01:22:14.871Z,0
2017-02-06T01:23:26.272Z,0
2017-02-06T01:24:37.670Z,0
2017-02-06T01:25:49.071Z,0
2017-02-06T01:27:00.523Z,0
2017-02-06T01:28:11.931Z,0
2017-02-06T01:29:23.334Z,0
2017-02-06T01:30:34.733Z,0
2017-02-06T01:31:46.337Z,0
2017-02-06T01:32:57.780Z,0
2017-02-06T01:34:09.181Z,0
2017-02-06T01:35:20.591Z,0
2017-02-06T01:36:31.997Z,0
2017-02-06T01:37:43.451Z,0
2017-02-06T01:38:55.101Z,0
2017-02-06T01:40:06.503Z,0
2017-02-06T01:41:17.905Z,0
2017-02-06T01:42:29.517Z,0
2017-02-06T01:43:40.926Z,0
2017-02-06T01:44:52.378Z,0
2017-02-06T01:46:03.772Z,0
2017-02-06T01:47:15.371Z,0
2017-02-06T01:48:26.780Z,0
2017-02-06T01:49:38.185Z,0
2017-02-06T01:50:49.637Z,0
2017-02-06T01:52:01.242Z,0
2017-02-06T01:53:12.648Z,0
2017-02-06T01:54:24.047Z,0
2017-02-06T01:55:35.644Z,0
2017-02-06T01:56:47.092Z,0
2017-02-06T01:57:58.940Z,0
2017-02-06T01:59:10.336Z,0
2017-02-06T02:00:21.732Z,0
2017-02-06T02:01:33.335Z,0
2017-02-06T02:02:44.788Z,0
2017-02-06T02:03:56.397Z,0
2017-02-06T02:05:07.785Z,0
2017-02-06T02:06:19.187Z,0
2017-02-06T02:07:30.587Z,0
2017-02-06T02:08:42.035Z,0
2017-02-06T02:09:53.637Z,0
2017-02-06T02:11:05.247Z,0
2017-02-06T02:12:16.851Z,0
2017-02-06T02:13:28.255Z,0
2017-02-06T02:14:39.704Z,0
2017-02-06T02:15:51.110Z,0
2017-02-06T02:17:02.519Z,0
2017-02-06T02:18:13.920Z,0
2017-02-06T02:19:25.318Z,0
2017-02-06T02:20:36.771Z,0
2017-02-06T02:21:48.374Z,0
2017-02-06T02:22:59.767Z,0
2017-02-06T02:24:11.172Z,0
2017-02-06T02:25:22.778Z,0
2017-02-06T02:26:34.227Z,0
2017-02-06T02:27:45.627Z,0
2017-02-06T02:28:57.226Z,0
2017-02-06T02:30:08.826Z,0
2017-02-06T02:31:20.429Z,0
2017-02-06T02:32:31.876Z,0
2017-02-06T02:33:43.277Z,0
2017-02-06T02:34:54.682Z,0
2017-02-06T02:36:06.083Z,0
2017-02-06T02:37:17.685Z,0
2017-02-06T02:38:29.141Z,0
2017-02-06T02:39:40.537Z,0
2017-02-06T02:40:51.938Z,0
2017-02-06T02:42:03.332Z,0
2017-02-06T02:43:14.731Z,0
2017-02-06T02:44:26.183Z,0
2017-02-06T02:45:37.582Z,0
2017-02-06T02:46:48.986Z,0
2017-02-06T02:48:00.387Z,0
2017-02-06T02:49:11.787Z,0
2017-02-06T02:50:23.235Z,0
2017-02-06T02:51:34.840Z,0
2017-02-06T02:52:46.236Z,0
2017-02-06T02:53:57.838Z,0
2017-02-06T02:55:09.236Z,0
2017-02-06T02:56:20.691Z,0
2017-02-06T02:57:32.087Z,0
2017-02-06T02:58:43.489Z,0
2017-02-06T02:59:54.887Z,0
2017-02-06T03:01:06.289Z,0
2017-02-06T03:02:17.729Z,0
2017-02-06T03:03:29.126Z,0
2017-02-06T03:04:40.527Z,0
2017-02-06T03:05:51.922Z,0
2017-02-06T03:07:03.322Z,0
2017-02-06T03:08:14.776Z,0
2017-02-06T03:09:26.184Z,0
2017-02-06T03:10:37.991Z,0
2017-02-06T03:11:49.395Z,0
2017-02-06T03:13:00.798Z,0
2017-02-06T03:14:12.243Z,0
2017-02-06T03:15:23.638Z,0
2017-02-06T03:16:35.035Z,0
2017-02-06T03:17:46.438Z,0
2017-02-06T03:18:58.035Z,0
2017-02-06T03:20:09.489Z,0
2017-02-06T03:21:20.887Z,0
2017-02-06T03:22:32.287Z,0
2017-02-06T03:23:43.717Z,0
2017-02-06T03:24:55.123Z,0
2017-02-06T03:26:06.573Z,0
2017-02-06T03:27:17.965Z,0
2017-02-06T03:28:29.368Z,0
2017-02-06T03:29:40.765Z,0
2017-02-06T03:30:52.170Z,0
2017-02-06T03:32:03.828Z,0
2017-02-06T03:33:15.235Z,0
2017-02-06T03:34:26.834Z,0
2017-02-06T03:35:38.240Z,0
2017-02-06T03:36:49.641Z,0
2017-02-06T03:38:01.089Z,0
2017-02-06T03:39:12.484Z,0
2017-02-06T03:40:23.883Z,0
2017-02-06T03:41:35.281Z,0
2017-02-06T03:42:46.691Z,0
2017-02-06T03:43:58.149Z,0
2017-02-06T03:45:09.555Z,0
2017-02-06T03:46:20.958Z,0
2017-02-06T03:47:32.369Z,0
2017-02-06T03:48:43.770Z,0
2017-02-06T03:49:55.224Z,0
2017-02-06T03:51:06.666Z,0
2017-02-06T03:52:18.275Z,0
2017-02-06T03:53:29.678Z,0
2017-02-06T03:54:41.081Z,0
2017-02-06T03:55:52.530Z,0
2017-02-06T03:57:03.933Z,0
2017-02-06T03:58:15.537Z,0
2017-02-06T03:59:26.942Z,0
2017-02-06T04:00:38.591Z,0
2017-02-06T04:01:50.241Z,0
2017-02-06T04:03:01.836Z,0
2017-02-06T04:04:13.243Z,0
2017-02-06T04:05:24.840Z,0
2017-02-06T04:06:36.245Z,0
2017-02-06T04:07:47.694Z,0
2017-02-06T04:08:59.096Z,0
2017-02-06T04:10:10.499Z,0
2017-02-06T04:11:21.896Z,0
2017-02-06T04:12:33.293Z,0
2017-02-06T04:13:44.734Z,0
2017-02-06T04:14:56.142Z,0
2017-02-06T04:16:07.547Z,0
2017-02-06T04:17:18.947Z,0
2017-02-06T04:18:30.357Z,0
2017-02-06T04:19:42.019Z,0
2017-02-06T04:20:53.425Z,0
2017-02-06T04:22:04.821Z,0
2017-02-06T04:23:16.425Z,0
2017-02-06T04:24:27.825Z,0
2017-02-06T04:25:39.474Z,0
2017-02-06T04:26:50.877Z,0
2017-02-06T04:28:02.282Z,0
2017-02-06T04:29:13.686Z,0
2017-02-06T04:30:25.292Z,0
2017-02-06T04:31:37.149Z,0
2017-02-06T04:32:48.543Z,0
2017-02-06T04:33:59.946Z,0
2017-02-06T04:35:11.352Z,0
2017-02-06T04:36:22.753Z,0
2017-02-06T04:37:34.205Z,0
2017-02-06T04:38:45.605Z,0
2017-02-06T04:39:57.008Z,0
2017-02-06T04:41:08.407Z,0
2017-02-06T04:42:19.807Z,0
2017-02-06T04:43:31.264Z,0
2017-02-06T04:44:42.655Z,0
2017-02-06T04:45:54.261Z,0
2017-02-06T04:47:05.861Z,0
2017-02-06T04:48:17.261Z,0
2017-02-06T04:49:28.711Z,0
2017-02-06T04:50:40.114Z,0
2017-02-06T04:51:51.518Z,0
2017-02-06T04:53:02.919Z,0
2017-02-06T04:54:14.522Z,0
2017-02-06T04:55:25.974Z,0
2017-02-06T04:56:37.412Z,0
2017-02-06T04:57:49.024Z,0
2017-02-06T04:59:00.430Z,0
2017-02-06T05:00:12.033Z,0
2017-02-06T05:01:23.493Z,0
2017-02-06T05:02:34.893Z,0
2017-02-06T05:03:46.286Z,0
2017-02-06T05:04:57.681Z,0
2017-02-06T05:06:09.074Z,0
2017-02-06T05:07:20.729Z,0
2017-02-06T05:08:32.141Z,0
2017-02-06T05:09:43.540Z,0
2017-02-06T05:10:54.943Z,0
2017-02-06T05:12:06.348Z,0
2017-02-06T05:13:17.816Z,0
2017-02-06T05:14:29.223Z,0
2017-02-06T05:15:40.624Z,0
2017-02-06T05:16:52.227Z,0
2017-02-06T05:18:03.623Z,0
2017-02-06T05:19:15.292Z,0
2017-02-06T05:20:26.694Z,0
2017-02-06T05:21:38.128Z,0
2017-02-06T05:22:49.739Z,0
2017-02-06T05:24:01.339Z,0
2017-02-06T05:25:12.806Z,0
2017-02-06T05:26:24.202Z,0
2017-02-06T05:27:35.606Z,0
2017-02-06T05:28:47.008Z,0
2017-02-06T05:29:58.415Z,0
2017-02-06T05:31:09.866Z,0
2017-02-06T05:32:21.325Z,0
2017-02-06T05:33:32.927Z,0
2017-02-06T05:34:44.327Z,0
2017-02-06T05:35:55.725Z,0
2017-02-06T05:37:07.175Z,0
2017-02-06T05:38:18.575Z,0
2017-02-06T05:39:30.186Z,0
2017-02-06T05:40:41.586Z,0
2017-02-06T05:41:52.988Z,0
2017-02-06T05:43:04.439Z,0
2017-02-06T05:44:15.835Z,0
2017-02-06T05:45:27.244Z,0
2017-02-06T05:46:38.642Z,0
2017-02-06T05:47:50.046Z,0
2017-02-06T05:49:01.504Z,0
2017-02-06T05:50:12.912Z,0
2017-02-06T05:51:24.505Z,0
2017-02-06T05:52:35.908Z,0
2017-02-06T05:53:47.307Z,0
2017-02-06T05:54:58.765Z,0
2017-02-06T05:56:10.174Z,0
2017-02-06T05:57:21.579Z,0
2017-02-06T05:58:33.190Z,0
2017-02-06T05:59:44.586Z,0
2017-02-06T06:00:56.039Z,0
2017-02-06T06:02:07.437Z,0
2017-02-06T06:03:18.836Z,0
2017-02-06T06:04:30.249Z,0
2017-02-06T06:05:41.646Z,0
2017-02-06T06:06:53.106Z,0
2017-02-06T06:08:04.513Z,0
2017-02-06T06:09:15.913Z,0
2017-02-06T06:10:27.517Z,0
2017-02-06T06:11:38.920Z,0
2017-02-06T06:12:50.364Z,0
2017-02-06T06:14:01.769Z,0
2017-02-06T06:15:13.170Z,0
2017-02-06T06:16:24.575Z,0
2017-02-06T06:17:35.977Z,0
2017-02-06T06:18:47.427Z,0
2017-02-06T06:19:58.828Z,0
2017-02-06T06:21:10.226Z,0
2017-02-06T06:22:21.619Z,0
2017-02-06T06:23:33.022Z,0
2017-02-06T06:24:44.474Z,0
2017-02-06T06:25:56.078Z,0
2017-02-06T06:27:07.483Z,0
2017-02-06T06:28:18.887Z,0
2017-02-06T06:29:30.287Z,0
2017-02-06T06:30:41.741Z,0
2017-02-06T06:31:53.139Z,0
2017-02-06T06:33:04.738Z,0
2017-02-06T06:34:16.345Z,4
2017-02-06T06:35:27.748Z,4
2017-02-06T06:36:39.404Z,0
2017-02-06T06:37:50.801Z,4
2017-02-06T06:39:02.213Z,4
2017-02-06T06:40:13.816Z,4
2017-02-06T06:41:25.218Z,8
2017-02-06T06:42:36.672Z,8
2017-02-06T06:43:48.074Z,8
2017-02-06T06:44:59.473Z,8
2017-02-06T06:46:10.882Z,12
2017-02-06T06:47:22.281Z,16
2017-02-06T06:48:33.732Z,16
2017-02-06T06:49:45.140Z,16
2017-02-06T06:50:56.533Z,20
2017-02-06T06:52:08.133Z,24
2017-02-06T06:53:19.537Z,24
2017-02-06T06:54:31.003Z,32
2017-02-06T06:55:42.415Z,40
2017-02-06T06:56:54.009Z,40
2017-02-06T06:58:05.425Z,44
2017-02-06T06:59:16.823Z,56
2017-02-06T07:00:28.278Z,68
2017-02-06T07:01:39.682Z,76
2017-02-06T07:02:51.083Z,84
2017-02-06T07:04:02.489Z,96
2017-02-06T07:05:13.892Z,112
2017-02-06T07:06:25.340Z,120
2017-02-06T07:07:36.740Z,116
2017-02-06T07:08:48.342Z,112
2017-02-06T07:09:59.949Z,112
2017-02-06T07:11:11.351Z,124
2017-02-06T07:12:22.806Z,136
2017-02-06T07:13:34.204Z,144
2017-02-06T07:14:45.610Z,152
2017-02-06T07:15:57.010Z,168
2017-02-06T07:17:08.407Z,188
2017-02-06T07:18:19.854Z,208
2017-02-06T07:19:31.459Z,228
2017-02-06T07:20:42.863Z,260
2017-02-06T07:21:54.265Z,292
2017-02-06T07:23:05.662Z,320
2017-02-06T07:24:17.321Z,356
2017-02-06T07:25:28.719Z,376
2017-02-06T07:26:40.116Z,384
2017-02-06T07:27:51.519Z,392
2017-02-06T07:29:03.176Z,384
2017-02-06T07:30:14.832Z,404
2017-02-06T07:31:26.427Z,420
2017-02-06T07:32:37.832Z,436
2017-02-06T07:33:49.436Z,452
2017-02-06T07:35:00.836Z,448
2017-02-06T07:36:12.287Z,440
2017-02-06T07:37:23.886Z,416
2017-02-06T07:38:35.284Z,432
2017-02-06T07:39:46.889Z,480
2017-02-06T07:40:58.290Z,528
2017-02-06T07:42:09.746Z,580
2017-02-06T07:43:21.150Z,624
2017-02-06T07:44:32.553Z,660
2017-02-06T07:45:43.959Z,716
2017-02-06T07:46:55.360Z,764
2017-02-06T07:48:06.804Z,780
2017-02-06T07:49:18.211Z,812
2017-02-06T07:50:29.622Z,876
2017-02-06T07:51:41.029Z,900
2017-02-06T07:52:52.436Z,892
2017-02-06T07:54:03.887Z,912
2017-02-06T07:55:15.694Z,924
2017-02-06T07:56:27.089Z,916
2017-02-06T07:57:38.522Z,920
2017-02-06T07:58:49.926Z,944
2017-02-06T08:00:01.379Z,960
2017-02-06T08:01:12.777Z,928
2017-02-06T08:02:24.382Z,944
2017-02-06T08:03:35.791Z,1028
2017-02-06T08:04:47.191Z,1144
2017-02-06T08:05:58.635Z,1244
2017-02-06T08:07:10.037Z,1200
2017-02-06T08:08:21.445Z,1124
2017-02-06T08:09:32.846Z,1140
2017-02-06T08:10:44.296Z,1204
2017-02-06T08:11:55.895Z,1204
2017-02-06T08:13:07.294Z,1168
2017-02-06T08:14:18.688Z,1172
2017-02-06T08:15:30.092Z,1228
2017-02-06T08:16:41.557Z,1260
2017-02-06T08:17:52.960Z,1272
2017-02-06T08:19:04.363Z,1300
2017-02-06T08:20:15.768Z,1308
2017-02-06T08:21:27.405Z,1300
2017-02-06T08:22:38.862Z,1324
2017-02-06T08:23:50.260Z,1376
2017-02-06T08:25:01.665Z,1392
2017-02-06T08:26:13.265Z,1416
2017-02-06T08:27:24.669Z,1484
2017-02-06T08:28:36.121Z,1568
2017-02-06T08:29:47.717Z,1596
2017-02-06T08:30:59.121Z,1592
2017-02-06T08:32:10.559Z,1596
2017-02-06T08:33:21.966Z,1612
2017-02-06T08:34:33.416Z,1656
2017-02-06T08:35:44.824Z,1728
2017-02-06T08:36:56.235Z,1836
2017-02-06T08:38:07.640Z,1888
2017-02-06T08:39:19.031Z,1880
2017-02-06T08:40:30.485Z,1876
2017-02-06T08:41:41.890Z,1912
2017-02-06T08:42:53.300Z,1980
2017-02-06T08:44:04.704Z,2072
2017-02-06T08:45:16.105Z,2172
2017-02-06T08:46:27.566Z,2244
2017-02-06T08:47:38.972Z,2260
2017-02-06T08:48:50.578Z,2244
2017-02-06T08:50:01.983Z,2292
2017-02-06T08:51:13.389Z,2332
2017-02-06T08:52:24.858Z,2336
2017-02-06T08:53:36.262Z,2336
2017-02-06T08:54:47.708Z,2396
2017-02-06T08:55:59.115Z,2516
2017-02-06T08:57:10.514Z,2632
2017-02-06T08:58:21.973Z,2696
2017-02-06T08:59:33.375Z,2736
2017-02-06T09:00:44.788Z,2740
2017-02-06T09:01:56.191Z,2728
2017-02-06T09:03:07.602Z,2748
2017-02-06T09:04:19.056Z,2740
2017-02-06T09:05:30.462Z,2700
2017-02-06T09:06:42.072Z,2660
2017-02-06T09:07:53.480Z,2644
2017-02-06T09:09:04.886Z,2664
2017-02-06T09:10:16.347Z,2732
2017-02-06T09:11:27.955Z,2776
2017-02-06T09:12:39.353Z,2812
2017-02-06T09:13:50.761Z,2848
2017-02-06T09:15:02.163Z,2860
2017-02-06T09:16:13.620Z,2816
2017-02-06T09:17:25.223Z,2740
2017-02-06T09:18:36.626Z,2668
2017-02-06T09:19:48.230Z,2656
2017-02-06T09:20:59.633Z,2676
2017-02-06T09:22:11.085Z,2696
2017-02-06T09:23:22.489Z,2664
2017-02-06T09:24:33.894Z,2596
2017-02-06T09:25:45.497Z,2572
2017-02-06T09:26:57.137Z,2592
2017-02-06T09:28:08.598Z,2648
2017-02-06T09:29:19.999Z,2712
2017-02-06T09:30:31.411Z,2796
2017-02-06T09:31:43.020Z,2904
2017-02-06T09:32:54.425Z,3000
2017-02-06T09:34:05.879Z,2996
2017-02-06T09:35:17.486Z,2768
2017-02-06T09:36:28.886Z,2236
2017-02-06T09:37:40.496Z,1700
2017-02-06T09:38:51.897Z,1416
2017-02-06T09:40:03.602Z,1292
2017-02-06T09:41:15.012Z,1276
2017-02-06T09:42:26.420Z,1236
2017-02-06T09:43:37.824Z,1240
2017-02-06T09:44:49.224Z,1472
2017-02-06T09:46:00.680Z,1904
2017-02-06T09:47:12.284Z,2396
2017-02-06T09:48:23.690Z,2748
2017-02-06T09:49:35.297Z,2848
2017-02-06T09:50:46.709Z,2632
2017-02-06T09:51:58.163Z,2284
2017-02-06T09:53:09.568Z,1988
2017-02-06T09:54:20.974Z,1724
2017-02-06T09:55:32.381Z,1808
2017-02-06T09:56:43.790Z,2372
2017-02-06T09:57:55.244Z,3208
2017-02-06T09:59:06.850Z,3572
2017-02-06T10:00:18.260Z,3540
2017-02-06T10:01:29.667Z,2992
2017-02-06T10:02:41.067Z,2076
2017-02-06T10:03:52.522Z,1928
2017-02-06T10:05:03.928Z,2492
2017-02-06T10:06:15.337Z,3264
2017-02-06T10:07:26.735Z,3516
2017-02-06T10:08:38.145Z,2996
2017-02-06T10:09:49.612Z,2448
2017-02-06T10:11:01.023Z,2200
2017-02-06T10:12:12.428Z,2000
2017-02-06T10:13:24.043Z,1824
2017-02-06T10:14:35.447Z,1872
2017-02-06T10:15:46.900Z,2220
2017-02-06T10:16:58.508Z,2760
2017-02-06T10:18:09.918Z,2968
2017-02-06T10:19:21.330Z,2592
2017-02-06T10:20:32.741Z,2156
2017-02-06T10:21:44.797Z,1932
2017-02-06T10:22:56.605Z,1844
2017-02-06T10:24:08.008Z,1860
2017-02-06T10:25:19.615Z,2024
2017-02-06T10:26:31.016Z,2328
2017-02-06T10:27:42.475Z,2564
2017-02-06T10:28:53.893Z,2584
2017-02-06T10:30:05.501Z,2504
2017-02-06T10:31:17.101Z,2512
2017-02-06T10:32:28.711Z,2660
2017-02-06T10:33:40.166Z,2840
2017-02-06T10:34:51.568Z,2988
2017-02-06T10:36:03.180Z,3116
2017-02-06T10:37:14.587Z,3132
2017-02-06T10:38:25.991Z,3104
2017-02-06T10:39:37.445Z,3140
2017-02-06T10:40:48.849Z,3132
2017-02-06T10:42:00.247Z,3028
2017-02-06T10:43:11.656Z,2860
2017-02-06T10:44:23.064Z,2724
2017-02-06T10:45:34.518Z,2824
2017-02-06T10:46:45.917Z,3100
2017-02-06T10:47:57.329Z,3316
2017-02-06T10:49:08.732Z,3460
2017-02-06T10:50:20.335Z,3524
2017-02-06T10:51:31.997Z,3596
2017-02-06T10:52:43.408Z,3828
2017-02-06T10:53:54.809Z,4144
2017-02-06T10:55:06.208Z,4552
2017-02-06T10:56:17.816Z,5096
2017-02-06T10:57:29.275Z,5472
2017-02-06T10:58:40.681Z,5668
2017-02-06T10:59:52.284Z,5680
2017-02-06T11:01:03.699Z,5768
2017-02-06T11:02:15.104Z,5840
2017-02-06T11:03:26.757Z,5760
2017-02-06T11:04:38.164Z,5288
2017-02-06T11:05:49.571Z,4776
2017-02-06T11:07:01.219Z,4432
2017-02-06T11:08:12.625Z,4188
2017-02-06T11:09:24.081Z,3824
2017-02-06T11:10:35.893Z,3352
2017-02-06T11:11:47.303Z,2924
2017-02-06T11:12:58.705Z,2576
2017-02-06T11:14:10.146Z,2380
2017-02-06T11:15:21.850Z,2268
2017-02-06T11:16:33.458Z,2164
2017-02-06T11:17:44.868Z,2104
2017-02-06T11:18:56.477Z,2052
2017-02-06T11:20:08.070Z,2040
2017-02-06T11:21:19.524Z,2024
2017-02-06T11:22:30.930Z,1976
2017-02-06T11:23:42.342Z,1988
2017-02-06T11:24:53.751Z,2040
2017-02-06T11:26:05.162Z,2108
2017-02-06T11:27:16.618Z,2220
2017-02-06T11:28:28.024Z,2388
2017-02-06T11:29:39.435Z,2684
2017-02-06T11:30:50.844Z,2912
2017-02-06T11:32:02.451Z,2848
2017-02-06T11:33:13.948Z,2684
2017-02-06T11:34:25.556Z,2556
2017-02-06T11:35:36.962Z,2548
2017-02-06T11:36:48.369Z,2584
2017-02-06T11:37:59.791Z,2584
2017-02-06T11:39:11.455Z,2504
2017-02-06T11:40:22.860Z,2436
2017-02-06T11:41:34.278Z,2324
2017-02-06T11:42:45.683Z,2176
2017-02-06T11:43:57.095Z,2052
2017-02-06T11:45:08.553Z,1992
2017-02-06T11:46:20.011Z,2048
2017-02-06T11:47:31.420Z,2288
2017-02-06T11:48:42.830Z,2488
2017-02-06T11:49:54.245Z,2396
2017-02-06T11:51:05.708Z,2212
2017-02-06T11:52:17.111Z,2108
2017-02-06T11:53:28.523Z,2016
2017-02-06T11:54:39.932Z,1948
2017-02-06T11:55:51.340Z,1952
2017-02-06T11:57:03.000Z,2072
2017-02-06T11:58:14.412Z,2296
2017-02-06T11:59:25.828Z,2540
2017-02-06T12:00:37.442Z,2672
2017-02-06T12:01:48.848Z,2600
2017-02-06T12:03:00.312Z,2372
2017-02-06T12:04:11.718Z,2216
2017-02-06T12:05:23.325Z,2200
2017-02-06T12:06:34.735Z,2344
2017-02-06T12:07:46.155Z,2576
2017-02-06T12:08:57.620Z,2828
2017-02-06T12:10:09.223Z,2984
2017-02-06T12:11:20.626Z,2964
2017-02-06T12:12:32.234Z,2748
2017-02-06T12:13:43.843Z,2456
2017-02-06T12:14:55.298Z,2160
2017-02-06T12:16:06.704Z,1940
2017-02-06T12:17:18.318Z,1848
2017-02-06T12:18:29.728Z,1900
2017-02-06T12:19:41.132Z,2016
2017-02-06T12:20:52.588Z,2100
2017-02-06T12:22:03.998Z,2008
2017-02-06T12:23:15.406Z,1752
2017-02-06T12:24:27.024Z,1540
2017-02-06T12:25:38.637Z,1400
2017-02-06T12:26:50.099Z,1396
2017-02-06T12:28:01.716Z,1520
2017-02-06T12:29:13.148Z,1728
2017-02-06T12:30:24.555Z,1916
2017-02-06T12:31:35.971Z,2060
2017-02-06T12:32:47.425Z,2144
2017-02-06T12:33:58.834Z,2184
2017-02-06T12:35:10.238Z,2208
2017-02-06T12:36:21.645Z,2236
2017-02-06T12:37:33.053Z,2208
2017-02-06T12:38:44.512Z,2176
2017-02-06T12:39:55.918Z,2204
2017-02-06T12:41:07.328Z,2224
2017-02-06T12:42:18.722Z,2180
2017-02-06T12:43:30.126Z,2120
2017-02-06T12:44:41.583Z,2076
2017-02-06T12:45:52.990Z,2032
2017-02-06T12:47:04.400Z,2016
2017-02-06T12:48:15.796Z,2080
2017-02-06T12:49:27.216Z,2160
2017-02-06T12:50:38.674Z,2116
2017-02-06T12:51:50.080Z,2140
2017-02-06T12:53:01.488Z,2212
2017-02-06T12:54:12.900Z,2256
2017-02-06T12:55:24.310Z,2244
2017-02-06T12:56:35.773Z,2212
2017-02-06T12:57:47.174Z,2252
2017-02-06T12:58:58.582Z,2296
2017-02-06T13:00:09.993Z,2252
2017-02-06T13:01:21.405Z,2096
2017-02-06T13:02:32.868Z,1984
2017-02-06T13:03:44.276Z,1884
2017-02-06T13:04:55.686Z,1736
2017-02-06T13:06:07.095Z,1580
2017-02-06T13:07:18.703Z,1544
2017-02-06T13:08:30.365Z,1592
2017-02-06T13:09:41.768Z,1604
2017-02-06T13:10:53.391Z,1532
2017-02-06T13:12:04.795Z,1480
2017-02-06T13:13:16.205Z,1536
2017-02-06T13:14:27.859Z,1652
2017-02-06T13:15:39.261Z,1816
2017-02-06T13:16:50.672Z,1892
2017-02-06T13:18:02.091Z,1884
2017-02-06T13:19:13.494Z,1840
2017-02-06T13:20:24.954Z,1776
2017-02-06T13:21:36.368Z,1764
2017-02-06T13:22:47.977Z,1800
2017-02-06T13:23:59.396Z,1840
2017-02-06T13:25:10.802Z,1828
2017-02-06T13:26:22.669Z,1808
2017-02-06T13:27:34.082Z,1760
2017-02-06T13:28:45.492Z,1632
2017-02-06T13:29:56.899Z,1480
2017-02-06T13:31:08.307Z,1380
2017-02-06T13:32:19.769Z,1340
2017-02-06T13:33:31.185Z,1380
2017-02-06T13:34:42.603Z,1436
2017-02-06T13:35:54.016Z,1360
2017-02-06T13:37:05.629Z,1172
2017-02-06T13:38:17.088Z,968
2017-02-06T13:39:28.501Z,884
2017-02-06T13:40:39.902Z,856
2017-02-06T13:41:51.308Z,844
2017-02-06T13:43:02.716Z,808
2017-02-06T13:44:14.174Z,736
2017-02-06T13:45:25.573Z,684
2017-02-06T13:46:36.984Z,700
2017-02-06T13:47:48.389Z,712
2017-02-06T13:48:59.793Z,704
2017-02-06T13:50:11.454Z,720
2017-02-06T13:51:23.071Z,740
2017-02-06T13:52:34.474Z,736
2017-02-06T13:53:46.084Z,728
2017-02-06T13:54:57.503Z,732
2017-02-06T13:56:09.157Z,716
2017-02-06T13:57:20.570Z,752
2017-02-06T13:58:31.985Z,876
2017-02-06T13:59:43.385Z,1068
2017-02-06T14:00:54.996Z,1268
2017-02-06T14:02:06.448Z,1284
2017-02-06T14:03:18.061Z,1160
2017-02-06T14:04:29.478Z,1168
2017-02-06T14:05:40.893Z,1212
2017-02-06T14:06:52.498Z,1336
2017-02-06T14:08:03.964Z,1524
2017-02-06T14:09:15.361Z,1548
2017-02-06T14:10:26.782Z,1500
2017-02-06T14:11:38.192Z,1428
2017-02-06T14:12:49.597Z,1300
2017-02-06T14:14:01.046Z,1192
2017-02-06T14:15:12.451Z,1172
2017-02-06T14:16:24.054Z,1176
2017-02-06T14:17:35.671Z,1344
2017-02-06T14:18:47.289Z,1476
2017-02-06T14:19:58.736Z,1628
2017-02-06T14:21:10.149Z,1820
2017-02-06T14:22:21.560Z,1748
2017-02-06T14:23:32.972Z,1532
2017-02-06T14:24:44.381Z,1368
2017-02-06T14:25:55.834Z,1340
2017-02-06T14:27:07.242Z,1484
2017-02-06T14:28:18.645Z,1728
2017-02-06T14:29:30.067Z,1976
2017-02-06T14:30:41.676Z,2276
2017-02-06T14:31:53.339Z,2592
2017-02-06T14:33:04.738Z,2788
2017-02-06T14:34:16.140Z,2772
2017-02-06T14:35:27.554Z,2620
2017-02-06T14:36:38.960Z,2356
2017-02-06T14:37:50.417Z,2120
2017-02-06T14:39:01.826Z,1984
2017-02-06T14:40:13.635Z,1884
2017-02-06T14:41:25.048Z,1732
2017-02-06T14:42:36.859Z,1616
2017-02-06T14:43:48.315Z,1508
2017-02-06T14:44:59.715Z,1464
2017-02-06T14:46:11.127Z,1504
2017-02-06T14:47:22.935Z,1624
2017-02-06T14:48:34.343Z,1800
2017-02-06T14:49:45.802Z,1892
2017-02-06T14:50:57.210Z,1948
2017-02-06T14:52:08.634Z,1988
2017-02-06T14:53:20.039Z,1944
2017-02-06T14:54:31.448Z,1904
2017-02-06T14:55:42.910Z,1856
2017-02-06T14:56:54.313Z,1748
2017-02-06T14:58:05.767Z,1692
2017-02-06T14:59:17.381Z,1668
2017-02-06T15:00:28.796Z,1732
2017-02-06T15:01:40.254Z,1732
2017-02-06T15:02:51.662Z,1696
2017-02-06T15:04:03.069Z,1644
2017-02-06T15:05:14.484Z,1552
2017-02-06T15:06:25.915Z,1428
2017-02-06T15:07:37.377Z,1272
2017-02-06T15:08:48.786Z,1192
2017-02-06T15:10:00.196Z,1172
2017-02-06T15:11:11.605Z,1204
2017-02-06T15:12:23.207Z,1252
2017-02-06T15:13:34.666Z,1280
2017-02-06T15:14:46.080Z,1292
2017-02-06T15:15:57.486Z,1292
2017-02-06T15:17:08.894Z,1280
2017-02-06T15:18:20.315Z,1268
2017-02-06T15:19:31.775Z,1212
2017-02-06T15:20:43.185Z,1124
2017-02-06T15:21:54.596Z,1040
2017-02-06T15:23:06.009Z,960
2017-02-06T15:24:17.409Z,876
2017-02-06T15:25:29.274Z,756
2017-02-06T15:26:40.676Z,648
2017-02-06T15:27:52.284Z,604
2017-02-06T15:29:03.898Z,576
2017-02-06T15:30:15.511Z,580
2017-02-06T15:31:26.974Z,628
2017-02-06T15:32:38.382Z,704
2017-02-06T15:33:49.788Z,732
2017-02-06T15:35:01.406Z,676
2017-02-06T15:36:12.817Z,600
2017-02-06T15:37:24.283Z,532
2017-02-06T15:38:35.695Z,472
2017-02-06T15:39:47.098Z,424
2017-02-06T15:40:58.507Z,392
2017-02-06T15:42:09.917Z,376
2017-02-06T15:43:21.382Z,360
2017-02-06T15:44:32.792Z,340
2017-02-06T15:45:44.205Z,312
2017-02-06T15:46:55.615Z,280
2017-02-06T15:48:07.033Z,252
2017-02-06T15:49:18.443Z,236
2017-02-06T15:50:29.855Z,232
2017-02-06T15:51:41.267Z,228
2017-02-06T15:52:52.688Z,216
2017-02-06T15:54:04.141Z,196
2017-02-06T15:55:15.551Z,192
2017-02-06T15:56:26.965Z,188
2017-02-06T15:57:38.373Z,172
2017-02-06T15:58:49.780Z,140
2017-02-06T16:00:01.245Z,108
2017-02-06T16:01:12.646Z,88
2017-02-06T16:02:24.284Z,80
2017-02-06T16:03:35.899Z,72
2017-02-06T16:04:47.341Z,64
2017-02-06T16:05:58.803Z,60
2017-02-06T16:07:10.210Z,60
2017-02-06T16:08:21.625Z,60
2017-02-06T16:09:33.033Z,56
2017-02-06T16:10:44.443Z,60
2017-02-06T16:11:55.895Z,68
2017-02-06T16:13:07.501Z,72
2017-02-06T16:14:18.909Z,68
2017-02-06T16:15:30.329Z,64
2017-02-06T16:16:42.144Z,60
2017-02-06T16:17:53.603Z,52
2017-02-06T16:19:05.009Z,44
2017-02-06T16:20:16.414Z,40
2017-02-06T16:21:27.827Z,36
2017-02-06T16:22:39.437Z,32
2017-02-06T16:23:50.895Z,28
2017-02-06T16:25:02.302Z,24
2017-02-06T16:26:13.717Z,20
2017-02-06T16:27:25.124Z,16
2017-02-06T16:28:36.533Z,16
2017-02-06T16:29:47.992Z,16
2017-02-06T16:30:59.600Z,12
2017-02-06T16:32:11.002Z,12
2017-02-06T16:33:22.411Z,8
2017-02-06T16:34:33.825Z,8
2017-02-06T16:35:45.287Z,8
2017-02-06T16:36:56.691Z,8
2017-02-06T16:38:08.102Z,8
2017-02-06T16:39:19.724Z,4